createdAt,value
2019-03-17T01:30:18.260Z,18.70
2019-03-17T01:32:52.472Z,18.70
2019-03-17T01:35:33.931Z,18.70
2019-03-17T01:38:08.065Z,18.60
2019-03-17T01:40:42.570Z,18.70
2019-03-17T01:43:15.826Z,18.70
2019-03-17T01:45:50.146Z,18.70
2019-03-17T01:48:23.896Z,18.70
2019-03-17T01:50:57.839Z,18.70
2019-03-17T01:53:31.594Z,18.70
2019-03-17T01:56:09.221Z,18.70
2019-03-17T01:58:42.485Z,18.70
2019-03-17T02:01:15.638Z,18.70
2019-03-17T02:03:48.452Z,18.70
2019-03-17T02:06:21.791Z,18.70
2019-03-17T02:08:54.888Z,18.70
2019-03-17T02:11:28.220Z,18.70
2019-03-17T02:14:01.782Z,18.70
2019-03-17T02:16:35.447Z,18.80
2019-03-17T02:19:09.319Z,18.80
2019-03-17T02:21:43.294Z,18.80
2019-03-17T02:24:16.595Z,18.80
2019-03-17T02:26:50.199Z,18.80
2019-03-17T02:29:24.138Z,18.80
2019-03-17T02:31:57.325Z,18.80
2019-03-17T02:34:30.749Z,18.80
2019-03-17T02:37:04.277Z,18.90
2019-03-17T02:39:37.618Z,18.80
2019-03-17T02:42:12.329Z,18.90
2019-03-17T02:44:45.818Z,18.90
2019-03-17T02:47:23.143Z,18.90
2019-03-17T02:49:57.091Z,19.00
2019-03-17T02:52:30.513Z,19.00
2019-03-17T02:55:04.006Z,19.00
2019-03-17T02:57:37.362Z,19.10
2019-03-17T03:00:11.894Z,19.00
2019-03-17T03:02:47.344Z,19.10
2019-03-17T03:05:20.531Z,19.10
2019-03-17T03:07:53.556Z,19.20
2019-03-17T03:10:27.138Z,19.20
2019-03-17T03:13:00.294Z,19.20
2019-03-17T03:15:33.098Z,19.20
2019-03-17T03:18:06.180Z,19.20
2019-03-17T03:20:39.277Z,19.20
2019-03-17T03:23:13.544Z,19.20
2019-03-17T03:25:46.478Z,19.20
2019-03-17T03:28:20.081Z,19.20
2019-03-17T03:30:58.172Z,19.20
2019-03-17T03:33:31.731Z,19.20
2019-03-17T03:36:11.089Z,19.20
2019-03-17T03:38:40.041Z,19.20
2019-03-17T03:41:15.352Z,19.20
2019-03-17T03:43:48.595Z,19.30
2019-03-17T03:46:22.198Z,19.30
2019-03-17T03:48:55.769Z,19.30
2019-03-17T03:51:28.896Z,19.30
2019-03-17T03:54:02.930Z,19.30
2019-03-17T03:56:35.821Z,19.20
2019-03-17T03:59:09.159Z,19.20
2019-03-17T04:01:42.445Z,19.20
2019-03-17T04:04:15.373Z,19.20
2019-03-17T04:06:48.212Z,19.20
2019-03-17T04:09:21.782Z,19.20
2019-03-17T04:11:57.711Z,19.20
2019-03-17T04:14:31.106Z,19.20
2019-03-17T04:17:04.222Z,19.30
2019-03-17T04:19:37.102Z,19.30
2019-03-17T04:22:09.854Z,19.30
2019-03-17T04:24:43.413Z,19.30
2019-03-17T04:27:16.290Z,19.20
2019-03-17T04:29:49.514Z,19.30
2019-03-17T04:32:23.136Z,19.30
2019-03-17T04:34:56.951Z,19.40
2019-03-17T04:37:29.679Z,19.40
2019-03-17T04:40:04.879Z,19.40
2019-03-17T04:42:45.445Z,19.50
2019-03-17T04:45:19.012Z,19.50
2019-03-17T04:47:51.758Z,19.50
2019-03-17T04:50:24.735Z,19.50
2019-03-17T04:52:57.747Z,19.50
2019-03-17T04:55:31.181Z,19.50
2019-03-17T04:58:04.129Z,19.60
2019-03-17T05:00:38.310Z,19.50
2019-03-17T05:03:11.272Z,19.50
2019-03-17T05:05:44.770Z,19.50
2019-03-17T05:08:17.726Z,19.60
2019-03-17T05:10:50.789Z,19.70
2019-03-17T05:13:25.788Z,19.80
2019-03-17T05:15:59.100Z,19.80
2019-03-17T05:18:32.399Z,19.90
2019-03-17T05:21:06.481Z,19.90
2019-03-17T05:23:39.470Z,19.90
2019-03-17T05:26:12.739Z,20.00
2019-03-17T05:28:46.500Z,19.90
2019-03-17T05:31:19.873Z,19.90
2019-03-17T05:33:52.637Z,20.00
2019-03-17T05:36:25.929Z,20.10
2019-03-17T05:38:58.668Z,20.10
2019-03-17T05:41:31.689Z,20.10
2019-03-17T05:44:05.400Z,20.10
2019-03-17T05:46:39.276Z,20.10
2019-03-17T05:49:12.245Z,20.10
2019-03-17T05:51:45.637Z,20.10
2019-03-17T05:54:18.748Z,20.10
2019-03-17T05:56:52.678Z,20.00
2019-03-17T05:59:26.018Z,20.00
2019-03-17T06:01:59.677Z,20.00
2019-03-17T06:04:32.529Z,20.00
2019-03-17T06:07:17.681Z,20.00
2019-03-17T06:09:40.929Z,20.00
2019-03-17T06:12:14.410Z,20.00
2019-03-17T06:14:47.465Z,20.00
2019-03-17T06:17:20.841Z,20.10
2019-03-17T06:19:53.508Z,20.10
2019-03-17T06:22:26.775Z,20.10
2019-03-17T06:24:59.496Z,20.10
2019-03-17T06:27:32.875Z,20.10
2019-03-17T06:30:07.011Z,20.20
2019-03-17T06:32:40.622Z,20.10
2019-03-17T06:35:13.740Z,20.10
2019-03-17T06:37:46.757Z,20.10
2019-03-17T06:54:34.384Z,20.10
2019-03-17T06:57:08.501Z,20.10
2019-03-17T06:59:43.507Z,20.10
2019-03-17T07:02:16.872Z,20.10
2019-03-17T07:04:50.691Z,20.20
2019-03-17T07:07:23.587Z,20.10
2019-03-17T07:09:56.506Z,20.10
2019-03-17T07:12:30.201Z,20.00
2019-03-17T07:15:05.699Z,20.10
2019-03-17T07:17:39.502Z,20.00
2019-03-17T07:20:14.321Z,20.00
2019-03-17T07:22:47.882Z,20.00
2019-03-17T07:25:21.751Z,19.90
2019-03-17T07:27:55.710Z,19.90
2019-03-17T07:30:29.465Z,19.90
2019-03-17T07:33:03.043Z,19.90
2019-03-17T07:35:37.967Z,19.80
2019-03-17T07:38:11.621Z,19.80
2019-03-17T07:40:44.655Z,19.80
2019-03-17T07:43:17.921Z,19.80
2019-03-17T07:45:51.612Z,19.80
2019-03-17T07:48:25.195Z,19.80
2019-03-17T07:50:58.794Z,19.70
2019-03-17T07:53:33.810Z,19.70
2019-03-17T07:56:07.949Z,19.70
2019-03-17T07:58:46.623Z,19.70
2019-03-17T08:01:25.881Z,19.60
2019-03-17T08:03:59.691Z,19.60
2019-03-17T08:06:33.258Z,19.60
2019-03-17T08:09:08.835Z,19.60
2019-03-17T08:11:42.902Z,19.60
2019-03-17T08:14:16.532Z,19.60
2019-03-17T08:16:50.436Z,19.60
2019-03-17T08:19:24.128Z,19.60
2019-03-17T08:21:58.803Z,19.50
2019-03-17T08:24:32.418Z,19.50
2019-03-17T08:27:08.203Z,19.50
2019-03-17T08:29:44.078Z,19.50
2019-03-17T08:32:17.667Z,19.50
2019-03-17T08:34:53.381Z,19.50
2019-03-17T08:37:27.079Z,19.50
2019-03-17T08:40:00.972Z,19.60
2019-03-17T08:42:34.022Z,19.60
2019-03-17T08:45:07.639Z,19.60
2019-03-17T08:47:57.350Z,19.50
2019-03-17T08:50:21.652Z,19.50
2019-03-17T08:52:55.038Z,19.50
2019-03-17T08:55:29.884Z,19.50
2019-03-17T08:58:04.510Z,19.40
2019-03-17T09:00:38.283Z,19.40
2019-03-17T09:03:17.868Z,19.40
2019-03-17T09:05:52.723Z,19.40
2019-03-17T09:08:34.291Z,19.40
2019-03-17T09:11:00.851Z,19.40
2019-03-17T09:13:33.585Z,19.40
2019-03-17T09:16:07.450Z,19.40
2019-03-17T09:18:42.471Z,19.40
2019-03-17T09:21:16.740Z,19.40
2019-03-17T09:23:49.615Z,19.40
2019-03-17T09:26:39.724Z,19.40
2019-03-17T09:36:06.059Z,19.30
2019-03-17T09:38:47.259Z,19.40
2019-03-17T09:41:43.131Z,19.40
2019-03-17T09:47:41.241Z,19.30
2019-03-17T09:50:15.831Z,19.40
2019-03-17T09:52:49.035Z,19.40
2019-03-17T09:55:22.769Z,19.30
2019-03-17T09:57:56.007Z,19.40
2019-03-17T10:00:29.552Z,19.40
2019-03-17T10:03:02.915Z,19.40
2019-03-17T10:05:36.091Z,19.40
2019-03-17T10:08:11.186Z,19.40
2019-03-17T10:10:44.198Z,19.30
2019-03-17T10:13:17.695Z,19.30
2019-03-17T10:15:50.979Z,19.30
2019-03-17T10:18:24.557Z,19.30
2019-03-17T10:20:58.464Z,19.30
2019-03-17T10:23:32.351Z,19.30
2019-03-17T10:26:05.680Z,19.30
2019-03-17T10:28:38.819Z,19.30
2019-03-17T10:31:12.227Z,19.20
2019-03-17T10:33:46.557Z,19.20
2019-03-17T10:36:19.637Z,19.20
2019-03-17T10:38:55.596Z,19.20
2019-03-17T10:41:29.401Z,19.20
2019-03-17T10:44:03.517Z,19.20
2019-03-17T10:46:36.288Z,19.20
2019-03-17T10:49:09.773Z,19.20
2019-03-17T10:51:43.463Z,19.20
2019-03-17T10:54:36.671Z,19.20
2019-03-17T10:57:04.583Z,19.20
2019-03-17T10:59:37.629Z,19.20
2019-03-17T11:02:11.130Z,19.10
2019-03-17T11:04:44.347Z,19.20
2019-03-17T11:07:17.662Z,19.20
2019-03-17T11:09:51.134Z,19.20
2019-03-17T11:12:25.590Z,19.10
2019-03-17T11:14:58.929Z,19.20
2019-03-17T11:17:32.255Z,19.20
2019-03-17T11:20:06.730Z,19.20
2019-03-17T11:22:40.271Z,19.20
2019-03-17T11:25:19.361Z,19.20
2019-03-17T11:27:52.155Z,19.20
2019-03-17T11:30:25.281Z,19.20
2019-03-17T11:32:58.583Z,19.10
2019-03-17T11:35:31.937Z,19.10
2019-03-17T11:38:04.971Z,19.10
2019-03-17T11:40:38.188Z,19.10
2019-03-17T11:43:11.292Z,19.10
2019-03-17T11:45:44.990Z,19.20
2019-03-17T11:48:19.821Z,19.20
2019-03-17T11:50:53.173Z,19.20
2019-03-17T11:53:27.302Z,19.20
2019-03-17T11:56:04.753Z,19.10
2019-03-17T11:58:37.636Z,19.20
2019-03-17T12:01:12.276Z,19.20
2019-03-17T12:03:47.142Z,19.20
2019-03-17T12:06:20.754Z,19.20
2019-03-17T12:08:55.131Z,19.20
2019-03-17T12:11:28.399Z,19.20
2019-03-17T12:14:01.104Z,19.20
2019-03-17T12:16:34.116Z,19.20
2019-03-17T12:19:07.757Z,19.20
2019-03-17T12:21:41.072Z,19.20
2019-03-17T12:24:14.052Z,19.20
2019-03-17T12:26:51.906Z,19.20
2019-03-17T12:29:26.429Z,19.20
2019-03-17T12:32:00.647Z,19.20
2019-03-17T12:34:33.902Z,19.20
2019-03-17T12:37:07.101Z,19.20
2019-03-17T12:39:43.086Z,19.20
2019-03-17T12:42:17.487Z,19.20
2019-03-17T12:44:50.720Z,19.20
2019-03-17T12:47:26.311Z,19.20
2019-03-17T12:49:59.500Z,19.20
2019-03-17T12:52:34.415Z,19.10
2019-03-17T12:55:09.038Z,19.10
2019-03-17T12:57:42.669Z,19.10
2019-03-17T13:00:24.797Z,19.10
2019-03-17T13:02:58.616Z,19.10
2019-03-17T13:05:34.531Z,19.20
2019-03-17T13:08:08.421Z,19.20
2019-03-17T13:10:45.213Z,19.20
2019-03-17T13:13:25.548Z,19.10
2019-03-17T13:16:00.660Z,19.10
2019-03-17T13:18:33.643Z,19.10
2019-03-17T13:21:06.476Z,19.10
2019-03-17T13:23:39.670Z,19.10
2019-03-17T13:26:14.265Z,19.10
2019-03-17T13:28:47.234Z,19.20
2019-03-17T13:31:20.752Z,19.10
2019-03-17T13:33:53.526Z,19.20
2019-03-17T13:36:28.450Z,19.20
2019-03-17T13:39:01.507Z,19.10
2019-03-17T13:41:36.482Z,19.10
2019-03-17T13:44:09.517Z,19.20
2019-03-17T13:46:43.486Z,19.10
2019-03-17T13:49:17.485Z,19.20
2019-03-17T13:51:54.670Z,19.20
2019-03-17T13:54:28.095Z,19.10
2019-03-17T13:57:01.369Z,19.10
2019-03-17T13:59:34.992Z,19.10
2019-03-17T14:02:09.475Z,19.10
2019-03-17T14:04:54.755Z,19.10
2019-03-17T14:07:28.379Z,19.10
2019-03-17T14:10:13.377Z,19.10
2019-03-17T14:12:37.691Z,19.10
2019-03-17T14:15:17.012Z,19.10
2019-03-17T14:17:50.686Z,19.10
2019-03-17T14:20:25.112Z,19.10
2019-03-17T14:22:58.466Z,19.10
2019-03-17T14:25:33.212Z,19.10
2019-03-17T14:28:06.520Z,19.10
2019-03-17T14:30:39.661Z,19.10
2019-03-17T14:33:12.487Z,19.10
2019-03-17T14:35:46.501Z,19.10
2019-03-17T14:38:20.506Z,19.10
2019-03-17T14:40:57.186Z,19.10
2019-03-17T14:43:30.376Z,19.10
2019-03-17T14:46:03.461Z,19.10
2019-03-17T14:48:39.596Z,19.10
2019-03-17T14:51:12.203Z,19.10
2019-03-17T14:53:47.348Z,19.10
2019-03-17T14:56:21.342Z,19.10
2019-03-17T14:58:55.217Z,19.10
2019-03-17T15:01:29.606Z,19.10
2019-03-17T15:04:03.663Z,19.10
2019-03-17T15:06:37.202Z,19.10
2019-03-17T15:09:14.923Z,19.10
2019-03-17T15:11:48.094Z,19.10
2019-03-17T15:14:21.067Z,19.00
2019-03-17T15:16:54.285Z,19.00
2019-03-17T15:19:28.956Z,19.00
2019-03-17T15:22:02.149Z,19.00
2019-03-17T15:24:36.634Z,19.00
2019-03-17T15:27:15.026Z,19.00
2019-03-17T15:29:48.712Z,19.00
2019-03-17T15:32:25.177Z,18.90
2019-03-17T15:34:58.733Z,19.00
2019-03-17T15:37:36.311Z,18.90
2019-03-17T15:40:15.447Z,18.90
2019-03-17T15:42:49.079Z,18.90
2019-03-17T15:45:32.055Z,18.90
2019-03-17T15:48:06.464Z,18.90
2019-03-17T15:50:39.657Z,18.90
2019-03-17T15:53:13.390Z,18.90
2019-03-17T15:55:47.084Z,18.90
2019-03-17T15:58:20.167Z,18.90
2019-03-17T16:00:59.716Z,18.90
2019-03-17T16:03:33.497Z,18.90
2019-03-17T16:06:06.464Z,18.90
2019-03-17T16:08:39.677Z,18.90
2019-03-17T16:11:12.529Z,18.90
2019-03-17T16:13:50.429Z,18.90
2019-03-17T16:16:30.846Z,18.90
2019-03-17T16:19:05.478Z,18.90
2019-03-17T16:21:40.370Z,18.90
2019-03-17T16:24:13.979Z,18.90
2019-03-17T16:26:48.422Z,18.90
2019-03-17T16:29:21.634Z,18.90
2019-03-17T16:31:54.678Z,18.90
2019-03-17T16:34:29.001Z,18.90
2019-03-17T16:37:01.898Z,18.90
2019-03-17T16:39:35.510Z,18.90
2019-03-17T16:42:08.608Z,18.90
2019-03-17T16:44:42.013Z,18.90
2019-03-17T16:47:15.540Z,18.90
2019-03-17T16:49:49.111Z,18.90
2019-03-17T16:52:22.603Z,18.90
2019-03-17T16:54:59.095Z,18.90
2019-03-17T16:57:32.653Z,18.90
2019-03-17T17:00:07.042Z,18.90
2019-03-17T17:02:40.205Z,18.90
2019-03-17T17:05:20.194Z,18.90
2019-03-17T17:07:54.222Z,18.90
2019-03-17T17:10:28.830Z,18.90
2019-03-17T17:13:02.045Z,18.90
2019-03-17T17:15:35.802Z,18.90
2019-03-17T17:18:08.642Z,18.90
2019-03-17T17:20:42.167Z,18.80
2019-03-17T17:23:14.990Z,18.90
2019-03-17T17:25:48.150Z,18.80
2019-03-17T17:28:22.833Z,18.90
2019-03-17T17:31:14.911Z,18.80
2019-03-17T17:33:47.668Z,18.90
2019-03-17T17:36:23.102Z,18.90
2019-03-17T17:38:56.430Z,18.90
2019-03-17T17:41:29.309Z,18.90
2019-03-17T17:44:03.292Z,18.80
2019-03-17T17:46:36.543Z,18.80
2019-03-17T17:49:09.959Z,18.90
2019-03-17T17:51:43.631Z,18.90
2019-03-17T17:54:16.625Z,18.90
2019-03-17T17:56:49.694Z,18.90
2019-03-17T17:59:22.675Z,18.90
2019-03-17T18:01:56.812Z,18.90
2019-03-17T18:04:29.689Z,18.80
2019-03-17T18:07:02.690Z,18.80
2019-03-17T18:09:35.490Z,18.80
2019-03-17T18:12:20.099Z,18.80
2019-03-17T18:14:43.143Z,18.80
2019-03-17T18:17:16.026Z,18.80
2019-03-17T18:19:49.047Z,18.80
2019-03-17T18:22:21.976Z,18.80
2019-03-17T18:24:54.788Z,18.80
2019-03-17T18:27:27.961Z,18.80
2019-03-17T18:30:01.136Z,18.80
2019-03-17T18:32:34.607Z,18.80
2019-03-17T18:35:08.844Z,18.80
2019-03-17T18:37:41.825Z,18.80
2019-03-17T18:40:18.282Z,18.80
2019-03-17T18:42:51.182Z,18.80
2019-03-17T18:45:28.037Z,18.80
2019-03-17T18:48:01.620Z,18.80
2019-03-17T18:50:36.186Z,18.80
2019-03-17T18:53:09.043Z,18.80
2019-03-17T18:55:42.559Z,18.80
2019-03-17T18:58:15.621Z,18.80
2019-03-17T19:00:48.592Z,18.80
2019-03-17T19:03:21.544Z,18.80
2019-03-17T19:05:55.078Z,18.80
2019-03-17T19:08:28.066Z,18.80
2019-03-17T19:11:05.960Z,18.80
2019-03-17T19:13:39.439Z,18.80
2019-03-17T19:16:12.649Z,18.80
2019-03-17T19:18:52.647Z,18.80
2019-03-17T19:21:27.401Z,18.70
2019-03-17T19:24:02.543Z,18.70
2019-03-17T19:27:00.921Z,18.70
2019-03-17T19:29:41.786Z,18.70
2019-03-17T19:32:14.725Z,18.80
2019-03-17T19:34:49.091Z,18.70
2019-03-17T19:37:22.414Z,18.80
2019-03-17T19:39:55.215Z,18.70
2019-03-17T19:42:30.201Z,18.70
2019-03-17T19:45:03.151Z,18.70
2019-03-17T19:47:36.424Z,18.70
2019-03-17T19:50:14.902Z,18.70
2019-03-17T19:53:08.061Z,18.70
2019-03-17T19:55:41.458Z,18.70
2019-03-17T19:58:14.775Z,18.70
2019-03-17T20:00:48.221Z,18.60
2019-03-17T20:03:21.388Z,18.70
2019-03-17T20:06:02.089Z,18.70
2019-03-17T20:08:30.259Z,18.70
2019-03-17T20:11:03.107Z,18.70
2019-03-17T20:13:35.901Z,18.60
2019-03-17T20:16:08.698Z,18.60
2019-03-17T20:18:42.142Z,18.60
2019-03-17T20:21:26.176Z,18.70
2019-03-17T20:23:59.228Z,18.60
2019-03-17T20:26:31.949Z,18.60
2019-03-17T20:29:06.789Z,18.60
2019-03-17T20:31:40.084Z,18.60
2019-03-17T20:34:13.140Z,18.60
2019-03-17T20:36:47.325Z,18.60
2019-03-17T20:39:21.526Z,18.60
2019-03-17T20:41:54.673Z,18.60
2019-03-17T20:44:27.636Z,18.60
2019-03-17T20:47:01.001Z,18.60
2019-03-17T20:49:33.953Z,18.60
2019-03-17T20:52:07.931Z,18.60
2019-03-17T20:54:40.871Z,18.60
2019-03-17T20:57:16.218Z,18.60
2019-03-17T20:59:50.045Z,18.60
2019-03-17T21:02:23.119Z,18.60
2019-03-17T21:04:56.156Z,18.60
2019-03-17T21:07:29.146Z,18.60
2019-03-17T21:10:02.220Z,18.60
2019-03-17T21:12:35.242Z,18.60
2019-03-17T21:15:15.628Z,18.60
2019-03-17T21:17:49.638Z,18.60
2019-03-17T21:20:27.142Z,18.60
2019-03-17T21:23:00.757Z,18.60
2019-03-17T21:25:34.683Z,18.60
2019-03-17T21:28:07.912Z,18.60
2019-03-17T21:30:41.054Z,18.60
2019-03-17T21:33:14.390Z,18.60
2019-03-17T21:35:48.478Z,18.60
2019-03-17T21:38:22.464Z,18.60
2019-03-17T21:41:06.556Z,18.60
2019-03-17T21:43:30.402Z,18.60
2019-03-17T21:46:03.436Z,18.60
2019-03-17T21:48:37.265Z,18.60
2019-03-17T21:51:10.487Z,18.60
2019-03-17T21:53:43.931Z,18.60
2019-03-17T21:56:17.005Z,18.60
2019-03-17T21:59:02.205Z,18.50
2019-03-17T22:01:36.400Z,18.50
2019-03-17T22:04:09.616Z,18.60
2019-03-17T22:06:43.273Z,18.50
2019-03-17T22:09:17.288Z,18.50
2019-03-17T22:11:50.852Z,18.60
2019-03-17T22:14:23.682Z,18.50
2019-03-17T22:16:56.793Z,18.50
2019-03-17T22:19:30.123Z,18.60
2019-03-17T22:22:02.994Z,18.60
2019-03-17T22:24:36.031Z,18.60
2019-03-17T22:27:09.553Z,18.50
2019-03-17T22:29:44.077Z,18.60
2019-03-17T22:32:17.621Z,18.50
2019-03-17T22:35:10.699Z,18.50
2019-03-17T22:37:43.767Z,18.60
2019-03-17T22:40:17.998Z,18.50
2019-03-17T22:42:51.157Z,18.50
2019-03-17T22:45:24.025Z,18.50
2019-03-17T22:47:57.464Z,18.60
2019-03-17T22:50:30.859Z,18.60
2019-03-17T22:53:04.131Z,18.60
2019-03-17T22:55:36.947Z,18.60
2019-03-17T22:58:10.097Z,18.60
2019-03-17T23:00:44.279Z,18.60
2019-03-17T23:03:18.087Z,18.60
2019-03-17T23:05:51.129Z,18.60
2019-03-17T23:08:25.512Z,18.60
2019-03-17T23:10:58.673Z,18.60
2019-03-17T23:13:31.786Z,18.60
2019-03-17T23:16:06.159Z,18.60
2019-03-17T23:18:39.311Z,18.60
2019-03-17T23:21:12.216Z,18.60
2019-03-17T23:23:45.320Z,18.60
2019-03-17T23:26:18.082Z,18.60
2019-03-17T23:28:51.813Z,18.60
2019-03-17T23:31:24.819Z,18.60
2019-03-17T23:33:57.662Z,18.60
2019-03-17T23:36:30.522Z,18.50
2019-03-17T23:39:04.041Z,18.50
2019-03-17T23:41:37.671Z,18.60
2019-03-17T23:44:10.763Z,18.60
2019-03-17T23:46:43.571Z,18.60
2019-03-17T23:49:16.627Z,18.60
2019-03-17T23:51:50.369Z,18.60
2019-03-17T23:54:23.147Z,18.60
2019-03-17T23:56:56.631Z,18.60
2019-03-17T23:59:29.665Z,18.60
